createdAt,value
2022-09-09T00:00:22.574Z,16.77
2022-09-09T00:02:59.097Z,16.73
2022-09-09T00:05:43.958Z,16.72
2022-09-09T00:08:13.957Z,16.71
2022-09-09T00:10:42.811Z,16.72
2022-09-09T00:13:17.101Z,16.74
2022-09-09T00:15:43.530Z,16.75
2022-09-09T00:18:18.873Z,16.70
2022-09-09T00:21:18.272Z,16.71
2022-09-09T00:23:49.731Z,16.74
2022-09-09T00:26:34.628Z,16.73
2022-09-09T00:29:00.928Z,16.77
2022-09-09T00:31:32.132Z,16.76
2022-09-09T00:34:01.914Z,16.76
2022-09-09T00:36:29.988Z,16.76
2022-09-09T00:38:57.750Z,16.74
2022-09-09T00:41:24.078Z,16.74
2022-09-09T00:43:58.626Z,16.74
2022-09-09T00:46:41.712Z,16.71
2022-09-09T00:49:26.538Z,16.76
2022-09-09T00:52:11.977Z,16.73
2022-09-09T00:54:48.650Z,16.69
2022-09-09T00:57:24.674Z,16.68
2022-09-09T01:00:14.334Z,16.70
2022-09-09T01:02:47.030Z,16.67
2022-09-09T01:05:18.277Z,16.69
2022-09-09T01:07:47.817Z,16.71
2022-09-09T01:10:33.010Z,16.72
2022-09-09T01:13:02.216Z,16.69
2022-09-09T01:15:29.917Z,16.70
2022-09-09T01:18:02.476Z,16.73
2022-09-09T01:20:38.132Z,16.75
2022-09-09T01:23:21.385Z,16.76
2022-09-09T01:26:07.124Z,16.76
2022-09-09T01:28:36.480Z,16.73
2022-09-09T01:31:04.359Z,16.74
2022-09-09T01:33:31.201Z,16.73
2022-09-09T01:36:04.245Z,16.70
2022-09-09T01:38:32.147Z,16.67
2022-09-09T01:40:59.479Z,16.70
2022-09-09T01:43:26.657Z,16.76
2022-09-09T01:45:55.135Z,16.77
2022-09-09T01:48:22.569Z,16.77
2022-09-09T01:50:49.017Z,16.73
2022-09-09T01:53:17.905Z,16.73
2022-09-09T01:55:50.714Z,16.71
2022-09-09T01:58:17.080Z,16.74
2022-09-09T02:00:45.517Z,16.76
2022-09-09T02:03:32.162Z,16.79
2022-09-09T02:06:01.517Z,16.76
2022-09-09T02:08:34.279Z,16.73
2022-09-09T02:11:04.651Z,16.77
2022-09-09T02:13:33.838Z,16.74
2022-09-09T02:16:05.072Z,16.72
2022-09-09T02:18:41.197Z,16.75
2022-09-09T02:21:08.042Z,16.77
2022-09-09T02:23:35.665Z,16.72
2022-09-09T02:26:03.066Z,16.70
2022-09-09T02:28:31.412Z,16.72
2022-09-09T02:30:57.921Z,16.70
2022-09-09T02:33:26.438Z,16.73
2022-09-09T02:35:53.816Z,16.74
2022-09-09T02:38:21.861Z,16.77
2022-09-09T02:40:48.318Z,16.76
2022-09-09T02:43:17.316Z,16.78
2022-09-09T02:45:51.615Z,16.76
2022-09-09T02:48:35.847Z,16.76
2022-09-09T02:51:16.559Z,16.77
2022-09-09T02:54:04.397Z,16.76
2022-09-09T02:56:33.805Z,16.82
2022-09-09T02:59:00.461Z,16.78
2022-09-09T03:01:26.904Z,16.79
2022-09-09T03:03:53.349Z,16.82
2022-09-09T03:06:19.758Z,16.80
2022-09-09T03:08:49.360Z,16.85
2022-09-09T03:11:16.212Z,16.79
2022-09-09T03:13:42.575Z,16.76
2022-09-09T03:16:09.010Z,16.74
2022-09-09T03:18:35.563Z,16.75
2022-09-09T03:21:02.076Z,16.76
2022-09-09T03:23:29.032Z,16.73
2022-09-09T03:25:58.053Z,16.75
2022-09-09T03:28:26.083Z,16.73
2022-09-09T03:30:52.915Z,16.71
2022-09-09T03:33:19.310Z,16.72
2022-09-09T03:35:48.580Z,16.78
2022-09-09T03:38:14.996Z,16.79
2022-09-09T03:40:49.698Z,16.74
2022-09-09T03:43:17.534Z,16.69
2022-09-09T03:45:48.560Z,16.70
2022-09-09T03:48:16.257Z,16.71
2022-09-09T03:50:49.470Z,16.71
2022-09-09T03:53:16.575Z,16.71
2022-09-09T03:55:46.624Z,16.70
2022-09-09T03:58:14.194Z,16.70
2022-09-09T04:00:46.018Z,16.71
2022-09-09T04:03:13.053Z,16.73
2022-09-09T04:05:43.242Z,16.76
2022-09-09T04:08:09.686Z,16.72
2022-09-09T04:10:39.097Z,16.70
2022-09-09T04:13:05.863Z,16.65
2022-09-09T04:15:33.138Z,16.62
2022-09-09T04:17:59.586Z,16.61
2022-09-09T04:20:25.947Z,16.59
2022-09-09T04:22:52.310Z,16.62
2022-09-09T04:25:18.685Z,16.64
2022-09-09T04:27:45.163Z,16.64
2022-09-09T04:30:13.277Z,16.66
2022-09-09T04:32:39.664Z,16.63
2022-09-09T04:35:06.109Z,16.60
2022-09-09T04:37:32.437Z,16.65
2022-09-09T04:39:59.014Z,16.70
2022-09-09T04:42:26.336Z,16.68
2022-09-09T04:44:52.796Z,16.69
2022-09-09T04:47:19.133Z,16.69
2022-09-09T04:49:45.534Z,16.72
2022-09-09T04:52:11.923Z,16.74
2022-09-09T04:54:38.254Z,16.76
2022-09-09T04:57:04.628Z,16.75
2022-09-09T04:59:31.210Z,16.74
2022-09-09T05:01:57.788Z,16.72
2022-09-09T05:04:24.142Z,16.73
2022-09-09T05:06:51.301Z,16.76
2022-09-09T05:09:17.656Z,16.76
2022-09-09T05:11:44.909Z,16.80
2022-09-09T05:14:13.081Z,16.79
2022-09-09T05:16:39.535Z,16.77
2022-09-09T05:19:05.949Z,16.80
2022-09-09T05:21:32.396Z,16.79
2022-09-09T05:23:59.290Z,16.79
2022-09-09T05:26:25.683Z,16.79
2022-09-09T05:28:52.109Z,16.77
2022-09-09T05:31:19.451Z,16.72
2022-09-09T05:33:47.196Z,16.68
2022-09-09T05:36:14.759Z,16.63
2022-09-09T05:38:41.750Z,16.69
2022-09-09T05:41:08.670Z,16.73
2022-09-09T05:43:36.777Z,16.73
2022-09-09T05:46:08.936Z,16.74
2022-09-09T05:48:36.938Z,16.76
2022-09-09T05:51:04.221Z,16.77
2022-09-09T05:53:35.294Z,16.72
2022-09-09T05:56:01.729Z,16.73
2022-09-09T05:58:28.594Z,16.73
2022-09-09T06:01:01.935Z,16.77
2022-09-09T06:03:28.313Z,16.76
2022-09-09T06:06:08.006Z,16.79
2022-09-09T06:08:35.121Z,16.86
2022-09-09T06:11:05.715Z,16.86
2022-09-09T06:13:32.484Z,16.85
2022-09-09T06:15:59.480Z,16.85
2022-09-09T06:18:28.709Z,16.82
2022-09-09T06:21:02.195Z,16.82
2022-09-09T06:23:29.322Z,16.80
2022-09-09T06:26:02.845Z,16.79
2022-09-09T06:28:29.227Z,16.85
2022-09-09T06:30:59.853Z,16.90
2022-09-09T06:33:26.433Z,17.00
2022-09-09T06:35:54.174Z,17.06
2022-09-09T06:38:20.610Z,17.13
2022-09-09T06:40:55.372Z,17.19
2022-09-09T06:43:21.802Z,17.25
2022-09-09T06:46:01.419Z,17.33
2022-09-09T06:48:29.150Z,17.36
2022-09-09T06:51:04.722Z,17.37
2022-09-09T06:53:32.137Z,17.40
2022-09-09T06:55:58.562Z,17.39
2022-09-09T06:58:24.911Z,17.42
2022-09-09T07:00:51.372Z,17.42
2022-09-09T07:03:18.298Z,17.40
2022-09-09T07:05:45.270Z,17.44
2022-09-09T07:08:11.727Z,17.44
2022-09-09T07:10:38.189Z,17.45
2022-09-09T07:13:05.634Z,17.45
2022-09-09T07:15:33.796Z,17.48
2022-09-09T07:18:02.278Z,17.47
2022-09-09T07:20:28.649Z,17.45
2022-09-09T07:22:55.811Z,17.46
2022-09-09T07:25:22.991Z,17.44
2022-09-09T07:27:50.215Z,17.44
2022-09-09T07:30:22.951Z,17.47
2022-09-09T07:32:52.860Z,17.50
2022-09-09T07:35:19.303Z,17.51
2022-09-09T07:37:50.670Z,17.53
2022-09-09T07:40:17.547Z,17.53
2022-09-09T07:42:43.941Z,17.55
2022-09-09T07:45:10.404Z,17.55
2022-09-09T07:47:36.797Z,17.54
2022-09-09T07:50:03.315Z,17.54
2022-09-09T07:52:29.684Z,17.53
2022-09-09T07:54:57.497Z,17.53
2022-09-09T07:57:24.018Z,17.57
2022-09-09T07:59:50.357Z,17.57
2022-09-09T08:02:16.755Z,17.59
2022-09-09T08:04:43.084Z,17.63
2022-09-09T08:07:09.496Z,17.70
2022-09-09T08:09:35.928Z,17.72
2022-09-09T08:12:02.486Z,17.91
2022-09-09T08:14:28.896Z,18.08
2022-09-09T08:16:55.625Z,18.35
2022-09-09T08:19:22.017Z,18.59
2022-09-09T08:21:49.984Z,18.51
2022-09-09T08:24:16.369Z,18.50
2022-09-09T08:26:43.934Z,18.73
2022-09-09T08:29:11.223Z,18.74
2022-09-09T08:31:38.684Z,18.61
2022-09-09T08:34:06.728Z,18.81
2022-09-09T08:36:34.874Z,19.12
2022-09-09T08:39:01.402Z,19.18
2022-09-09T08:41:36.441Z,19.16
2022-09-09T08:44:05.677Z,19.19
2022-09-09T08:46:52.396Z,19.07
2022-09-09T08:49:21.688Z,19.36
2022-09-09T08:51:49.163Z,19.65
2022-09-09T08:54:21.916Z,19.73
2022-09-09T08:57:01.879Z,19.93
2022-09-09T08:59:28.255Z,20.03
2022-09-09T09:01:54.610Z,20.21
2022-09-09T09:04:29.942Z,20.04
2022-09-09T09:07:02.455Z,19.76
2022-09-09T09:09:38.065Z,19.42
2022-09-09T09:12:10.530Z,19.22
2022-09-09T09:14:38.494Z,19.08
2022-09-09T09:17:07.309Z,18.98
2022-09-09T09:19:35.617Z,18.99
2022-09-09T09:22:11.435Z,19.02
2022-09-09T09:24:37.823Z,19.31
2022-09-09T09:27:19.471Z,19.73
2022-09-09T09:30:17.499Z,19.84
2022-09-09T09:32:35.949Z,19.84
2022-09-09T09:35:05.400Z,20.29
2022-09-09T09:37:36.470Z,20.64
2022-09-09T09:40:10.324Z,20.84
2022-09-09T09:42:36.750Z,21.00
2022-09-09T09:45:16.111Z,21.10
2022-09-09T09:47:42.533Z,21.36
2022-09-09T09:50:19.986Z,21.56
2022-09-09T09:52:54.851Z,21.64
2022-09-09T09:55:21.749Z,21.53
2022-09-09T09:57:48.146Z,21.57
2022-09-09T10:00:15.078Z,21.63
2022-09-09T10:02:44.248Z,21.80
2022-09-09T10:05:26.544Z,21.52
2022-09-09T10:08:03.395Z,21.01
2022-09-09T10:10:40.223Z,20.50
2022-09-09T10:13:12.577Z,20.10
2022-09-09T10:15:57.449Z,19.86
2022-09-09T10:18:42.575Z,19.69
2022-09-09T10:21:09.042Z,19.54
2022-09-09T10:23:35.408Z,19.91
2022-09-09T10:26:09.143Z,20.68
2022-09-09T10:28:35.626Z,21.21
2022-09-09T10:31:11.056Z,21.56
2022-09-09T10:33:43.660Z,21.59
2022-09-09T10:36:13.040Z,21.49
2022-09-09T10:38:44.482Z,21.64
2022-09-09T10:41:31.169Z,21.97
2022-09-09T10:44:07.251Z,22.32
2022-09-09T10:46:36.962Z,22.10
2022-09-09T10:49:13.460Z,21.78
2022-09-09T10:51:42.498Z,21.83
2022-09-09T10:54:08.939Z,21.62
2022-09-09T10:56:35.729Z,21.76
2022-09-09T10:59:17.487Z,21.86
2022-09-09T11:01:50.422Z,21.65
2022-09-09T11:04:18.325Z,21.62
2022-09-09T11:06:48.433Z,21.68
2022-09-09T11:09:19.553Z,21.93
2022-09-09T11:11:50.720Z,22.27
2022-09-09T11:14:40.053Z,22.38
2022-09-09T11:17:15.289Z,21.88
2022-09-09T11:19:43.040Z,21.69
2022-09-09T11:22:16.431Z,21.56
2022-09-09T11:24:46.515Z,21.35
2022-09-09T11:27:20.488Z,21.24
2022-09-09T11:29:48.520Z,21.18
2022-09-09T11:32:14.901Z,21.88
2022-09-09T11:34:52.072Z,22.08
2022-09-09T11:37:39.072Z,21.58
2022-09-09T11:40:24.331Z,21.11
2022-09-09T11:43:02.232Z,20.85
2022-09-09T11:45:30.183Z,20.75
2022-09-09T11:48:00.782Z,21.28
2022-09-09T11:50:27.129Z,21.99
2022-09-09T11:53:04.390Z,22.40
2022-09-09T11:55:33.956Z,22.12
2022-09-09T11:58:01.365Z,21.54
2022-09-09T12:00:34.034Z,21.27
2022-09-09T12:03:00.361Z,21.32
2022-09-09T12:05:37.352Z,21.32
2022-09-09T12:08:04.554Z,21.72
2022-09-09T12:10:33.513Z,22.14
2022-09-09T12:13:10.525Z,22.27
2022-09-09T12:15:47.383Z,22.30
2022-09-09T12:18:17.185Z,22.18
2022-09-09T12:20:56.002Z,22.15
2022-09-09T12:23:22.347Z,22.24
2022-09-09T12:26:01.852Z,22.34
2022-09-09T12:28:48.752Z,22.37
2022-09-09T12:31:35.952Z,22.42
2022-09-09T12:34:11.011Z,22.41
2022-09-09T12:36:38.805Z,22.24
2022-09-09T12:39:31.293Z,22.23
2022-09-09T12:42:00.613Z,22.28
2022-09-09T12:44:30.361Z,22.05
2022-09-09T12:47:00.360Z,22.28
2022-09-09T12:49:39.443Z,22.48
2022-09-09T12:52:06.639Z,22.46
2022-09-09T12:54:37.325Z,22.33
2022-09-09T12:57:04.349Z,22.33
2022-09-09T12:59:38.551Z,22.38
2022-09-09T13:02:12.918Z,22.26
2022-09-09T13:04:39.364Z,22.22
2022-09-09T13:07:11.026Z,22.12
2022-09-09T13:09:37.676Z,22.18
2022-09-09T13:12:08.267Z,22.35
2022-09-09T13:14:38.215Z,22.57
2022-09-09T13:17:06.315Z,22.64
2022-09-09T13:19:40.740Z,22.56
2022-09-09T13:22:22.138Z,22.39
2022-09-09T13:24:48.509Z,22.35
2022-09-09T13:27:25.373Z,22.23
2022-09-09T13:29:52.638Z,22.08
2022-09-09T13:32:19.084Z,22.25
2022-09-09T13:34:55.473Z,22.33
2022-09-09T13:37:31.186Z,22.31
2022-09-09T13:39:57.648Z,22.39
2022-09-09T13:42:28.824Z,22.43
2022-09-09T13:44:56.567Z,22.47
2022-09-09T13:47:27.620Z,22.54
2022-09-09T13:49:54.237Z,22.51
2022-09-09T13:52:20.675Z,22.62
2022-09-09T13:54:50.816Z,22.59
2022-09-09T13:57:26.397Z,22.53
2022-09-09T14:00:04.593Z,22.47
2022-09-09T14:02:32.229Z,22.44
2022-09-09T14:04:58.639Z,22.19
2022-09-09T14:07:26.208Z,21.99
2022-09-09T14:09:53.445Z,21.82
2022-09-09T14:12:20.033Z,21.75
2022-09-09T14:14:46.417Z,21.65
2022-09-09T14:17:12.771Z,21.60
2022-09-09T14:19:39.171Z,21.66
2022-09-09T14:22:05.546Z,21.80
2022-09-09T14:24:31.978Z,21.88
2022-09-09T14:26:58.292Z,21.96
2022-09-09T14:29:26.046Z,21.97
2022-09-09T14:31:52.413Z,21.99
2022-09-09T14:34:19.284Z,22.01
2022-09-09T14:36:47.871Z,22.08
2022-09-09T14:39:14.182Z,22.00
2022-09-09T14:41:40.555Z,21.86
2022-09-09T14:44:06.886Z,21.75
2022-09-09T14:46:34.242Z,21.84
2022-09-09T14:49:00.758Z,21.81
2022-09-09T14:51:29.321Z,21.76
2022-09-09T14:53:57.563Z,21.79
2022-09-09T14:56:25.473Z,21.81
2022-09-09T14:58:53.541Z,21.74
2022-09-09T15:01:21.509Z,21.76
2022-09-09T15:03:52.616Z,21.77
2022-09-09T15:06:19.786Z,21.73
2022-09-09T15:08:46.594Z,21.70
2022-09-09T15:11:15.352Z,21.67
2022-09-09T15:13:43.498Z,21.63
2022-09-09T15:16:11.526Z,21.63
2022-09-09T15:18:41.244Z,21.58
2022-09-09T15:21:07.558Z,21.55
2022-09-09T15:23:34.206Z,21.46
2022-09-09T15:26:00.579Z,21.42
2022-09-09T15:28:27.022Z,21.38
2022-09-09T15:30:54.331Z,21.34
2022-09-09T15:33:21.897Z,21.29
2022-09-09T15:35:48.519Z,21.23
2022-09-09T15:38:16.020Z,21.18
2022-09-09T15:40:42.367Z,21.14
2022-09-09T15:43:10.338Z,21.09
2022-09-09T15:45:36.707Z,21.06
2022-09-09T15:48:04.005Z,21.06
2022-09-09T15:50:33.333Z,21.05
2022-09-09T15:53:00.067Z,20.99
2022-09-09T15:55:26.590Z,20.95
2022-09-09T15:57:55.969Z,20.91
2022-09-09T16:00:24.222Z,20.88
2022-09-09T16:02:50.700Z,20.84
2022-09-09T16:05:17.389Z,20.83
2022-09-09T16:07:45.877Z,20.83
2022-09-09T16:10:14.524Z,20.80
2022-09-09T16:12:41.033Z,20.77
2022-09-09T16:15:08.299Z,20.75
2022-09-09T16:17:38.624Z,20.76
2022-09-09T16:20:07.840Z,20.73
2022-09-09T16:22:34.215Z,20.73
2022-09-09T16:25:00.778Z,20.73
2022-09-09T16:27:27.157Z,20.71
2022-09-09T16:29:54.460Z,20.69
2022-09-09T16:32:21.244Z,20.69
2022-09-09T16:34:47.613Z,20.65
2022-09-09T16:37:13.982Z,20.64
2022-09-09T16:39:40.323Z,20.60
2022-09-09T16:42:06.874Z,20.57
2022-09-09T16:44:33.193Z,20.58
2022-09-09T16:47:00.937Z,20.54
2022-09-09T16:49:29.160Z,20.52
2022-09-09T16:51:58.154Z,20.49
2022-09-09T16:54:26.133Z,20.45
2022-09-09T16:56:52.538Z,20.41
2022-09-09T16:59:20.094Z,20.38
2022-09-09T17:01:47.645Z,20.33
2022-09-09T17:04:17.203Z,20.25
2022-09-09T17:06:46.544Z,20.23
2022-09-09T17:09:13.893Z,20.14
2022-09-09T17:11:40.413Z,20.09
2022-09-09T17:14:08.586Z,20.08
2022-09-09T17:16:35.248Z,20.04
2022-09-09T17:19:04.695Z,19.99
2022-09-09T17:21:31.834Z,19.99
2022-09-09T17:23:58.569Z,19.94
2022-09-09T17:26:27.567Z,19.84
2022-09-09T17:28:59.441Z,19.83
2022-09-09T17:31:26.730Z,19.81
2022-09-09T17:33:53.695Z,19.78
2022-09-09T17:36:26.536Z,19.73
2022-09-09T17:38:53.303Z,19.67
2022-09-09T17:41:22.248Z,19.60
2022-09-09T17:43:49.341Z,19.54
2022-09-09T17:46:17.116Z,19.45
2022-09-09T17:48:45.598Z,19.32
2022-09-09T17:51:16.957Z,19.26
2022-09-09T17:53:44.461Z,19.24
2022-09-09T17:56:12.082Z,19.20
2022-09-09T17:58:39.356Z,19.13
2022-09-09T18:01:06.698Z,19.08
2022-09-09T18:03:51.619Z,19.05
2022-09-09T18:06:19.745Z,18.98
2022-09-09T18:08:50.292Z,18.94
2022-09-09T18:11:17.717Z,18.83
2022-09-09T18:13:44.269Z,18.76
2022-09-09T18:16:10.920Z,18.70
2022-09-09T18:18:37.493Z,18.65
2022-09-09T18:21:06.583Z,18.57
2022-09-09T18:23:40.804Z,18.41
2022-09-09T18:26:11.688Z,18.23
2022-09-09T18:28:38.857Z,18.07
2022-09-09T18:31:10.273Z,17.95
2022-09-09T18:33:37.452Z,17.83
2022-09-09T18:36:05.024Z,17.81
2022-09-09T18:38:33.068Z,17.93
2022-09-09T18:40:59.450Z,18.01
2022-09-09T18:43:25.769Z,17.93
2022-09-09T18:45:52.138Z,17.79
2022-09-09T18:48:18.482Z,17.72
2022-09-09T18:50:44.954Z,17.62
2022-09-09T18:53:11.311Z,17.66
2022-09-09T18:55:37.906Z,17.67
2022-09-09T18:58:04.241Z,17.67
2022-09-09T19:00:32.661Z,17.56
2022-09-09T19:02:59.061Z,17.64
2022-09-09T19:05:25.389Z,17.57
2022-09-09T19:07:51.741Z,17.61
2022-09-09T19:10:18.052Z,17.65
2022-09-09T19:12:44.790Z,17.56
2022-09-09T19:15:11.209Z,17.44
2022-09-09T19:17:38.192Z,17.45
2022-09-09T19:20:05.666Z,17.53
2022-09-09T19:22:32.197Z,17.58
2022-09-09T19:25:03.367Z,17.59
2022-09-09T19:27:30.277Z,17.64
2022-09-09T19:29:57.211Z,17.76
2022-09-09T19:35:11.077Z,17.93
2022-09-09T19:37:37.475Z,18.02
2022-09-09T19:40:05.401Z,18.13
2022-09-09T19:42:32.122Z,18.15
2022-09-09T19:44:58.549Z,18.21
2022-09-09T19:47:24.973Z,18.25
2022-09-09T19:49:51.519Z,18.28
2022-09-09T19:52:18.503Z,18.29
2022-09-09T19:54:45.393Z,18.33
2022-09-09T19:57:11.733Z,18.38
2022-09-09T19:59:38.171Z,18.40
2022-09-09T20:02:04.601Z,18.39
2022-09-09T20:04:31.191Z,18.42
2022-09-09T20:06:57.560Z,18.47
2022-09-09T20:09:26.045Z,18.47
2022-09-09T20:11:53.211Z,18.48
2022-09-09T20:14:19.766Z,18.51
2022-09-09T20:16:46.624Z,18.50
2022-09-09T20:19:13.852Z,18.50
2022-09-09T20:21:45.241Z,18.49
2022-09-09T20:24:13.927Z,18.46
2022-09-09T20:26:40.854Z,18.42
2022-09-09T20:29:11.226Z,18.41
2022-09-09T20:31:43.107Z,18.39
2022-09-09T20:34:14.248Z,18.44
2022-09-09T20:36:41.387Z,18.42
2022-09-09T20:39:12.576Z,18.40
2022-09-09T20:41:39.989Z,18.36
2022-09-09T20:44:08.208Z,18.33
2022-09-09T20:46:38.155Z,18.27
2022-09-09T20:49:06.126Z,18.28
2022-09-09T20:51:33.631Z,18.25
2022-09-09T20:54:01.421Z,18.29
2022-09-09T20:56:28.467Z,18.27
2022-09-09T20:58:55.051Z,18.30
2022-09-09T21:01:21.632Z,18.27
2022-09-09T21:03:48.545Z,18.26
2022-09-09T21:06:15.029Z,18.26
2022-09-09T21:08:41.495Z,18.22
2022-09-09T21:11:08.219Z,18.20
2022-09-09T21:13:39.523Z,18.22
2022-09-09T21:16:07.206Z,18.24
2022-09-09T21:18:34.658Z,18.24
2022-09-09T21:21:01.593Z,18.21
2022-09-09T21:23:28.232Z,18.16
2022-09-09T21:25:54.968Z,18.15
2022-09-09T21:28:21.815Z,18.14
2022-09-09T21:30:50.447Z,18.11
2022-09-09T21:33:17.848Z,18.09
2022-09-09T21:35:44.728Z,18.04
2022-09-09T21:38:16.153Z,18.04
2022-09-09T21:40:42.693Z,18.03
2022-09-09T21:43:12.240Z,17.94
2022-09-09T21:45:39.318Z,17.96
2022-09-09T21:48:06.074Z,17.85
2022-09-09T21:50:36.392Z,17.80
2022-09-09T21:53:03.082Z,17.80
2022-09-09T21:55:32.709Z,17.79
2022-09-09T21:57:59.196Z,17.81
2022-09-09T22:00:25.563Z,17.81
2022-09-09T22:02:52.120Z,17.77
2022-09-09T22:05:18.526Z,17.77
2022-09-09T22:07:44.901Z,17.81
2022-09-09T22:10:11.410Z,17.81
2022-09-09T22:12:38.088Z,17.85
2022-09-09T22:15:05.186Z,17.81
2022-09-09T22:17:31.788Z,17.79
2022-09-09T22:19:58.308Z,17.81
2022-09-09T22:22:24.859Z,17.76
2022-09-09T22:24:51.893Z,17.79
2022-09-09T22:27:18.391Z,17.78
2022-09-09T22:29:44.742Z,17.80
2022-09-09T22:32:11.191Z,17.85
2022-09-09T22:34:37.768Z,17.80
2022-09-09T22:37:04.783Z,17.84
2022-09-09T22:39:31.640Z,17.80
2022-09-09T22:41:58.662Z,17.80
2022-09-09T22:44:26.391Z,17.86
2022-09-09T22:46:53.311Z,17.84
2022-09-09T22:49:20.070Z,17.79
2022-09-09T22:51:46.410Z,17.78
2022-09-09T22:54:12.927Z,17.74
2022-09-09T22:56:39.286Z,17.70
2022-09-09T22:59:05.808Z,17.68
2022-09-09T23:01:32.739Z,17.66
2022-09-09T23:03:59.570Z,17.66
2022-09-09T23:06:26.880Z,17.63
2022-09-09T23:08:57.650Z,17.60
2022-09-09T23:11:34.323Z,17.51
2022-09-09T23:14:01.989Z,17.47
2022-09-09T23:16:39.597Z,17.48
2022-09-09T23:19:10.809Z,17.43
2022-09-09T23:21:38.291Z,17.36
2022-09-09T23:24:05.813Z,17.34
2022-09-09T23:26:33.000Z,17.37
2022-09-09T23:28:59.909Z,17.39
2022-09-09T23:31:27.266Z,17.35
2022-09-09T23:33:58.099Z,17.30
2022-09-09T23:36:25.061Z,17.22
2022-09-09T23:38:51.874Z,17.20
2022-09-09T23:41:22.326Z,17.19
2022-09-09T23:43:48.987Z,17.16
2022-09-09T23:46:16.521Z,17.16
2022-09-09T23:48:43.328Z,17.15
2022-09-09T23:51:11.119Z,17.16
2022-09-09T23:53:37.553Z,17.17
2022-09-09T23:56:05.111Z,17.16
2022-09-09T23:58:31.907Z,17.17
